Aviation Digital Data Service (ADDS)

Output produced by TAFs form (0933 UTC 19 August 2017)
found at http://aviationweather.gov/adds/tafs/
 
KSJC 190853Z AUTO 00000KT 10SM FEW014 17/14 A2992 RMK AO2 SLP132 T01670144 58008 $
KSJC 190522Z 1906/2006 31005KT P6SM SKC 
     FM190900 VRB03KT P6SM FEW008 
     FM191200 13006KT P6SM FEW008 SCT012 
     FM191600 VRB04KT P6SM SKC
       
KPAO 190347Z 35011KT 10SM SKC 19/16 A2994 RMK LAST
KWVI 190853Z AUTO 20003KT 10SM OVC008 15/13 A2996 RMK AO2 SLP144 T01500133 58005 TSNO
KE16 190915Z AUTO 13005KT 10SM FEW017 FEW040 14/13 A2996 RMK AO2
KHAF 190915Z AUTO 18006KT 8SM OVC006 15/14 A2991 RMK AO2
KRHV 190453Z 00000KT 10SM SKC 20/15 A2997 RMK LAST
KCVH 190910Z AUTO 00000KT 10SM CLR 14/12 A2995 RMK AO1